createdAt,value
2019-05-20T00:00:44.246Z,57.83
2019-05-20T00:03:13.605Z,56.00
2019-05-20T00:05:43.117Z,57.03
2019-05-20T00:08:12.534Z,55.23
2019-05-20T00:10:41.830Z,52.13
2019-05-20T00:13:11.475Z,51.92
2019-05-20T00:15:41.712Z,51.15
2019-05-20T00:18:11.879Z,51.48
2019-05-20T00:20:42.313Z,53.52
2019-05-20T00:23:12.547Z,51.17
2019-05-20T00:25:42.273Z,51.42
2019-05-20T00:28:12.395Z,53.25
2019-05-20T00:30:42.605Z,51.63
2019-05-20T00:33:12.764Z,56.35
2019-05-20T00:35:43.191Z,57.53
2019-05-20T00:38:12.979Z,57.85
2019-05-20T00:40:43.239Z,56.55
2019-05-20T00:43:13.254Z,59.98
2019-05-20T00:45:43.482Z,60.20
2019-05-20T00:48:13.642Z,62.62
2019-05-20T00:50:43.739Z,60.28
2019-05-20T00:53:13.939Z,59.75
2019-05-20T00:55:44.228Z,62.27
2019-05-20T00:58:14.475Z,64.58
2019-05-20T01:00:44.523Z,68.55
2019-05-20T01:03:14.531Z,67.20
2019-05-20T01:05:44.775Z,67.20
2019-05-20T01:08:14.770Z,68.42
2019-05-20T01:10:45.023Z,67.17
2019-05-20T01:13:15.052Z,68.17
2019-05-20T01:15:45.282Z,70.97
2019-05-20T01:18:15.337Z,69.00
2019-05-20T01:20:45.846Z,69.55
2019-05-20T01:23:15.639Z,70.00
2019-05-20T01:25:45.917Z,69.97
2019-05-20T01:28:15.964Z,71.65
2019-05-20T01:30:46.203Z,69.10
2019-05-20T01:33:16.293Z,70.15
2019-05-20T01:35:46.443Z,66.96
2019-05-20T01:38:16.474Z,69.27
2019-05-20T01:40:46.738Z,66.47
2019-05-20T01:43:16.980Z,65.77
2019-05-20T01:45:47.232Z,64.27
2019-05-20T01:48:17.235Z,65.62
2019-05-20T01:50:47.466Z,65.60
2019-05-20T01:53:17.504Z,62.20
2019-05-20T01:55:47.764Z,60.30
2019-05-20T01:58:17.817Z,59.67
2019-05-20T02:00:47.146Z,56.20
2019-05-20T02:03:30.460Z,54.33
2019-05-20T02:05:48.314Z,54.25
2019-05-20T02:08:18.668Z,51.37
2019-05-20T02:10:48.567Z,49.70
2019-05-20T02:13:18.717Z,50.33
2019-05-20T02:15:53.725Z,50.73
2019-05-20T02:18:23.073Z,51.25
2019-05-20T02:20:52.467Z,48.48
2019-05-20T02:23:21.829Z,48.48
2019-05-20T02:25:51.180Z,46.98
2019-05-20T02:28:20.473Z,47.75
2019-05-20T02:30:49.814Z,45.25
2019-05-20T02:37:20.169Z,45.10
2019-05-20T02:39:50.262Z,45.74
2019-05-20T02:42:20.541Z,44.45
2019-05-20T02:44:50.617Z,45.15
2019-05-20T02:47:20.708Z,45.00
2019-05-20T02:49:50.995Z,44.10
2019-05-20T02:52:21.108Z,45.60
2019-05-20T02:54:51.193Z,45.05
2019-05-20T02:57:21.440Z,44.00
2019-05-20T02:59:51.468Z,44.18
2019-05-20T03:02:21.586Z,41.28
2019-05-20T03:04:51.833Z,43.52
2019-05-20T03:07:21.995Z,45.17
2019-05-20T03:09:52.091Z,43.30
2019-05-20T03:12:22.217Z,43.45
2019-05-20T03:14:52.584Z,44.35
2019-05-20T03:17:23.141Z,41.45
2019-05-20T03:19:53.448Z,38.63
2019-05-20T03:22:23.582Z,38.63
2019-05-20T03:24:53.313Z,36.35
2019-05-20T03:27:23.104Z,35.73
2019-05-20T03:29:54.623Z,34.75
2019-05-20T03:32:24.014Z,35.00
2019-05-20T03:34:59.538Z,36.17
2019-05-20T03:37:24.523Z,36.70
2019-05-20T03:39:53.836Z,37.03
2019-05-20T03:42:23.983Z,36.50
2019-05-20T03:44:54.116Z,37.13
2019-05-20T03:47:24.388Z,38.15
2019-05-20T03:49:54.447Z,37.63
2019-05-20T03:52:24.587Z,37.00
2019-05-20T03:54:54.707Z,38.42
2019-05-20T03:57:24.958Z,37.67
2019-05-20T03:59:55.051Z,38.73
2019-05-20T04:02:25.162Z,37.63
2019-05-20T04:05:02.084Z,38.35
2019-05-20T04:07:26.425Z,37.60
2019-05-20T04:09:55.714Z,38.00
2019-05-20T04:12:25.760Z,37.30
2019-05-20T04:14:55.925Z,37.35
2019-05-20T04:17:26.854Z,37.25
2019-05-20T04:19:56.300Z,36.03
2019-05-20T04:22:26.539Z,36.98
2019-05-20T04:24:56.512Z,35.08
2019-05-20T04:27:26.744Z,33.20
2019-05-20T04:29:56.847Z,34.98
2019-05-20T04:32:27.070Z,33.48
2019-05-20T04:34:57.202Z,34.80
2019-05-20T04:37:27.453Z,33.58
2019-05-20T04:39:57.609Z,34.23
2019-05-20T04:42:27.750Z,31.95
2019-05-20T04:44:57.728Z,35.00
2019-05-20T04:47:27.875Z,33.78
2019-05-20T04:49:57.989Z,34.88
2019-05-20T04:52:28.115Z,33.67
2019-05-20T04:54:58.356Z,34.20
2019-05-20T04:57:28.502Z,35.38
2019-05-20T04:59:59.185Z,33.83
2019-05-20T05:02:30.881Z,34.23
2019-05-20T05:05:00.494Z,35.33
2019-05-20T05:07:29.831Z,33.63
2019-05-20T05:09:59.201Z,34.90
2019-05-20T05:12:29.536Z,33.95
2019-05-20T05:14:59.617Z,32.98
2019-05-20T05:17:29.695Z,30.95
2019-05-20T05:20:00.097Z,33.67
2019-05-20T05:22:30.024Z,32.53
2019-05-20T05:25:00.807Z,32.74
2019-05-20T05:27:30.245Z,32.00
2019-05-20T05:30:00.480Z,32.33
2019-05-20T05:32:43.325Z,31.17
2019-05-20T05:35:15.480Z,33.18
2019-05-20T05:37:44.881Z,31.75
2019-05-20T05:40:15.123Z,29.70
2019-05-20T05:42:44.862Z,32.63
2019-05-20T05:45:16.092Z,30.85
2019-05-20T05:47:45.402Z,31.77
2019-05-20T05:50:16.742Z,29.57
2019-05-20T05:52:46.086Z,31.02
2019-05-20T05:55:15.407Z,29.82
2019-05-20T05:57:44.725Z,29.67
2019-05-20T06:00:15.750Z,31.55
2019-05-20T06:05:14.147Z,29.65
2019-05-20T06:07:43.880Z,30.93
2019-05-20T06:10:13.524Z,28.65
2019-05-20T06:12:42.880Z,31.20
2019-05-20T06:15:13.121Z,29.72
2019-05-20T06:17:42.534Z,29.93
2019-05-20T06:20:12.079Z,29.10
2019-05-20T06:22:41.386Z,27.22
2019-05-20T06:25:11.631Z,28.87
2019-05-20T06:27:41.384Z,29.70
2019-05-20T06:30:13.510Z,28.45
2019-05-20T06:32:42.936Z,29.60
2019-05-20T06:35:12.582Z,28.62
2019-05-20T06:37:53.401Z,28.62
2019-05-20T06:40:23.498Z,29.80
2019-05-20T06:42:53.069Z,27.07
2019-05-20T06:45:22.435Z,27.83
2019-05-20T06:47:51.788Z,27.42
2019-05-20T06:50:21.203Z,27.70
2019-05-20T06:52:50.557Z,26.73
2019-05-20T06:55:19.863Z,27.60
2019-05-20T06:57:49.174Z,27.65
2019-05-20T07:00:36.535Z,26.30
2019-05-20T07:03:07.134Z,26.77
2019-05-20T07:05:36.504Z,26.80
2019-05-20T07:08:06.581Z,28.52
2019-05-20T07:10:36.627Z,26.65
2019-05-20T07:13:06.868Z,26.68
2019-05-20T07:15:36.846Z,27.22
2019-05-20T07:18:07.570Z,26.15
2019-05-20T07:20:37.085Z,25.90
2019-05-20T07:23:07.380Z,27.50
2019-05-20T07:25:37.457Z,26.80
2019-05-20T07:28:07.626Z,25.14
2019-05-20T07:30:37.683Z,25.77
2019-05-20T07:33:07.979Z,25.55
2019-05-20T07:35:37.999Z,24.05
2019-05-20T07:38:08.279Z,26.30
2019-05-20T07:40:38.442Z,26.85
2019-05-20T07:43:08.672Z,26.00
2019-05-20T07:45:38.856Z,27.65
2019-05-20T07:48:08.994Z,26.33
2019-05-20T07:50:41.164Z,25.10
2019-05-20T07:53:12.178Z,26.82
2019-05-20T07:55:59.475Z,25.05
2019-05-20T07:58:33.762Z,25.27
2019-05-20T08:01:03.325Z,27.50
2019-05-20T08:03:32.748Z,26.17
2019-05-20T08:06:02.070Z,26.62
2019-05-20T08:08:32.637Z,28.23
2019-05-20T08:11:01.994Z,26.97
2019-05-20T08:13:32.276Z,27.25
2019-05-20T08:16:01.576Z,26.57
2019-05-20T08:18:30.902Z,26.20
2019-05-20T08:21:00.239Z,27.32
2019-05-20T08:23:29.569Z,26.40
2019-05-20T08:25:58.840Z,25.15
2019-05-20T08:28:28.186Z,24.20
2019-05-20T08:30:57.536Z,26.20
2019-05-20T08:33:26.885Z,25.13
2019-05-20T08:35:56.239Z,25.10
2019-05-20T08:38:25.589Z,25.57
2019-05-20T08:40:54.975Z,25.52
2019-05-20T08:43:24.326Z,26.20
2019-05-20T08:45:54.256Z,25.10
2019-05-20T08:48:23.618Z,25.30
2019-05-20T08:50:52.990Z,25.15
2019-05-20T08:53:22.304Z,26.52
2019-05-20T08:55:51.645Z,25.95
2019-05-20T08:58:21.028Z,26.80
2019-05-20T09:00:50.390Z,25.60
2019-05-20T09:03:19.723Z,29.30
2019-05-20T09:05:49.018Z,28.42
2019-05-20T09:08:18.367Z,28.92
2019-05-20T09:10:47.676Z,29.48
2019-05-20T09:13:17.028Z,28.27
2019-05-20T09:15:46.389Z,27.98
2019-05-20T09:18:15.774Z,29.32
2019-05-20T09:20:45.096Z,29.60
2019-05-20T09:23:14.798Z,30.30
2019-05-20T09:25:44.830Z,31.52
2019-05-20T09:28:15.103Z,29.60
2019-05-20T09:30:45.198Z,32.90
2019-05-20T09:33:16.330Z,32.40
2019-05-20T09:35:45.699Z,32.03
2019-05-20T09:38:20.780Z,33.83
2019-05-20T09:40:48.905Z,34.27
2019-05-20T09:43:19.389Z,32.73
2019-05-20T09:46:04.164Z,33.02
2019-05-20T09:48:19.834Z,34.33
2019-05-20T09:50:49.229Z,32.20
2019-05-20T09:53:18.530Z,35.38
2019-05-20T09:55:47.887Z,34.38
2019-05-20T09:58:17.245Z,35.52
2019-05-20T10:00:47.182Z,33.88
2019-05-20T10:03:18.165Z,33.78
2019-05-20T10:05:47.477Z,36.10
2019-05-20T10:08:34.536Z,33.70
2019-05-20T10:10:48.784Z,33.65
2019-05-20T10:13:18.194Z,33.38
2019-05-20T10:15:48.305Z,34.20
2019-05-20T10:18:35.618Z,34.50
2019-05-20T10:20:49.403Z,34.35
2019-05-20T10:23:18.779Z,34.60
2019-05-20T10:25:48.801Z,34.12
2019-05-20T10:28:18.910Z,35.98
2019-05-20T10:30:49.222Z,36.80
2019-05-20T10:33:19.174Z,37.00
2019-05-20T10:35:49.414Z,38.13
2019-05-20T10:38:19.529Z,36.88
2019-05-20T10:40:49.624Z,36.58
2019-05-20T10:43:19.765Z,36.17
2019-05-20T10:45:49.911Z,35.73
2019-05-20T10:48:20.161Z,33.98
2019-05-20T10:50:50.214Z,36.03
2019-05-20T10:53:20.486Z,35.47
2019-05-20T10:55:50.572Z,35.75
2019-05-20T10:58:21.113Z,34.83
2019-05-20T11:01:01.560Z,33.73
2019-05-20T11:03:21.831Z,34.10
2019-05-20T11:05:51.186Z,33.10
2019-05-20T11:08:21.389Z,33.50
2019-05-20T11:10:51.550Z,32.12
2019-05-20T11:13:21.641Z,34.00
2019-05-20T11:15:51.742Z,31.33
2019-05-20T11:18:21.988Z,31.77
2019-05-20T11:20:52.078Z,31.68
2019-05-20T11:23:22.338Z,32.03
2019-05-20T11:25:52.426Z,31.97
2019-05-20T11:28:22.668Z,32.48
2019-05-20T11:30:52.922Z,32.60
2019-05-20T11:33:22.987Z,31.12
2019-05-20T11:35:53.221Z,33.10
2019-05-20T11:38:23.473Z,32.27
2019-05-20T11:40:55.027Z,32.98
2019-05-20T11:43:24.334Z,33.63
2019-05-20T11:45:53.758Z,31.93
2019-05-20T11:48:24.071Z,33.28
2019-05-20T11:50:54.107Z,32.93
2019-05-20T11:53:24.329Z,33.78
2019-05-20T11:55:54.359Z,32.98
2019-05-20T11:58:24.616Z,34.70
2019-05-20T12:00:54.888Z,34.63
2019-05-20T12:03:25.049Z,35.40
2019-05-20T12:05:55.274Z,34.95
2019-05-20T12:08:25.511Z,37.10
2019-05-20T12:10:55.540Z,35.92
2019-05-20T12:13:25.806Z,36.95
2019-05-20T12:15:55.759Z,36.93
2019-05-20T12:18:25.995Z,36.45
2019-05-20T12:20:56.074Z,36.20
2019-05-20T12:23:26.294Z,37.23
2019-05-20T12:25:56.358Z,35.35
2019-05-20T12:28:26.536Z,34.50
2019-05-20T12:30:56.555Z,35.98
2019-05-20T12:33:27.963Z,35.15
2019-05-20T12:35:57.275Z,35.25
2019-05-20T12:38:27.106Z,35.03
2019-05-20T12:40:57.194Z,36.53
2019-05-20T12:43:27.319Z,35.80
2019-05-20T12:45:57.462Z,37.00
2019-05-20T12:48:27.643Z,37.95
2019-05-20T12:50:57.732Z,40.85
2019-05-20T12:53:28.050Z,40.05
2019-05-20T12:55:58.044Z,38.17
2019-05-20T12:58:28.683Z,38.08
2019-05-20T13:00:58.358Z,39.83
2019-05-20T13:03:28.611Z,38.28
2019-05-20T13:05:58.662Z,37.48
2019-05-20T13:08:28.085Z,38.15
2019-05-20T13:10:57.387Z,36.08
2019-05-20T13:13:26.697Z,36.53
2019-05-20T13:15:55.991Z,37.10
2019-05-20T13:18:25.349Z,37.78
2019-05-20T13:20:54.685Z,39.20
2019-05-20T13:23:24.003Z,36.13
2019-05-20T13:25:53.341Z,38.23
2019-05-20T13:28:22.738Z,36.30
2019-05-20T13:30:52.030Z,36.80
2019-05-20T13:33:21.404Z,36.73
2019-05-20T13:35:50.709Z,36.35
2019-05-20T13:38:20.582Z,37.00
2019-05-20T13:40:50.819Z,37.67
2019-05-20T13:43:20.128Z,38.43
2019-05-20T13:45:49.445Z,37.83
2019-05-20T13:48:18.795Z,38.88
2019-05-20T13:50:48.145Z,39.78
2019-05-20T13:53:17.541Z,39.15
2019-05-20T13:55:46.850Z,40.15
2019-05-20T13:58:16.202Z,40.85
2019-05-20T14:00:45.522Z,35.95
2019-05-20T14:03:14.832Z,36.93
2019-05-20T14:05:44.155Z,33.90
2019-05-20T14:08:13.471Z,38.07
2019-05-20T14:10:43.375Z,37.00
2019-05-20T14:13:12.710Z,38.15
2019-05-20T14:15:42.029Z,39.58
2019-05-20T14:18:11.407Z,41.10
2019-05-20T14:20:40.814Z,39.03
2019-05-20T14:23:10.119Z,38.95
2019-05-20T14:25:39.560Z,39.60
2019-05-20T14:28:08.979Z,39.20
2019-05-20T14:30:38.311Z,40.73
2019-05-20T14:33:07.611Z,39.42
2019-05-20T14:35:37.024Z,41.35
2019-05-20T14:38:06.367Z,40.55
2019-05-20T14:40:35.709Z,42.08
2019-05-20T14:43:05.051Z,40.50
2019-05-20T14:45:34.810Z,40.63
2019-05-20T14:48:05.165Z,39.00
2019-05-20T14:50:35.329Z,43.13
2019-05-20T14:53:05.352Z,42.27
2019-05-20T14:55:42.086Z,42.53
2019-05-20T14:58:06.716Z,40.95
2019-05-20T15:00:36.037Z,41.23
2019-05-20T15:03:06.051Z,41.85
2019-05-20T15:05:36.215Z,42.25
2019-05-20T15:08:06.300Z,41.05
2019-05-20T15:10:36.626Z,41.90
2019-05-20T15:13:06.538Z,43.15
2019-05-20T15:15:36.894Z,42.80
2019-05-20T15:18:07.219Z,41.40
2019-05-20T15:20:37.289Z,41.18
2019-05-20T15:23:07.583Z,41.48
2019-05-20T15:25:37.359Z,41.23
2019-05-20T15:28:06.642Z,39.00
2019-05-20T15:30:35.942Z,40.25
2019-05-20T15:33:06.470Z,38.97
2019-05-20T15:35:35.790Z,39.20
2019-05-20T15:38:06.416Z,37.10
2019-05-20T15:40:36.643Z,36.50
2019-05-20T15:43:05.939Z,36.85
2019-05-20T15:45:35.277Z,38.70
2019-05-20T15:48:04.611Z,36.25
2019-05-20T15:50:33.935Z,36.30
2019-05-20T15:53:03.571Z,38.35
2019-05-20T15:55:32.890Z,37.60
2019-05-20T15:58:02.377Z,35.98
2019-05-20T16:00:31.739Z,36.83
2019-05-20T16:03:01.128Z,36.73
2019-05-20T16:05:30.548Z,34.85
2019-05-20T16:07:59.934Z,37.98
2019-05-20T16:10:29.247Z,36.15
2019-05-20T16:12:58.554Z,36.65
2019-05-20T16:15:27.873Z,37.40
2019-05-20T16:17:57.178Z,37.28
2019-05-20T16:20:26.611Z,34.30
2019-05-20T16:22:56.050Z,35.48
2019-05-20T16:25:25.451Z,36.38
2019-05-20T16:27:54.811Z,35.03
2019-05-20T16:30:24.279Z,36.73
2019-05-20T16:32:53.604Z,35.90
2019-05-20T16:35:23.058Z,36.15
2019-05-20T16:37:52.368Z,36.63
2019-05-20T16:40:21.865Z,36.60
2019-05-20T16:42:51.236Z,37.65
2019-05-20T16:45:20.691Z,35.75
2019-05-20T16:47:50.265Z,37.50
2019-05-20T16:50:19.804Z,36.45
2019-05-20T16:52:50.743Z,35.60
2019-05-20T16:57:48.678Z,33.35
2019-05-20T17:00:31.213Z,36.13
2019-05-20T17:02:51.487Z,36.10
2019-05-20T17:05:20.787Z,35.17
2019-05-20T17:07:50.118Z,35.43
2019-05-20T17:10:19.413Z,33.08
2019-05-20T17:12:48.823Z,33.65
2019-05-20T17:15:18.284Z,34.95
2019-05-20T17:17:47.608Z,35.17
2019-05-20T17:20:17.053Z,33.67
2019-05-20T17:22:46.401Z,34.78
2019-05-20T17:25:15.767Z,32.90
2019-05-20T17:27:47.482Z,32.83
2019-05-20T17:30:16.958Z,33.90
2019-05-20T17:32:46.302Z,33.02
2019-05-20T17:35:16.328Z,31.75
2019-05-20T17:37:46.499Z,30.92
2019-05-20T17:40:17.233Z,30.27
2019-05-20T17:42:46.715Z,30.80
2019-05-20T17:45:17.692Z,30.27
2019-05-20T17:47:47.173Z,30.40
2019-05-20T17:50:18.439Z,29.67
2019-05-20T17:52:48.952Z,30.37
2019-05-20T17:55:18.400Z,31.07
2019-05-20T17:57:47.983Z,29.35
2019-05-20T18:00:19.864Z,29.65
2019-05-20T18:02:49.240Z,29.92
2019-05-20T18:05:18.623Z,30.70
2019-05-20T18:07:48.076Z,31.95
2019-05-20T18:10:20.040Z,31.10
2019-05-20T18:12:49.412Z,30.00
2019-05-20T18:15:19.016Z,30.70
2019-05-20T18:17:48.742Z,30.88
2019-05-20T18:20:19.276Z,30.17
2019-05-20T18:22:49.111Z,31.27
2019-05-20T18:25:20.401Z,30.00
2019-05-20T18:27:51.347Z,29.70
2019-05-20T18:30:21.066Z,31.20
2019-05-20T18:32:50.411Z,28.80
2019-05-20T18:35:19.734Z,30.35
2019-05-20T18:37:49.848Z,31.82
2019-05-20T18:40:19.994Z,31.23
2019-05-20T18:42:50.243Z,32.38
2019-05-20T18:45:20.328Z,34.03
2019-05-20T18:47:50.582Z,34.63
2019-05-20T18:50:20.709Z,33.78
2019-05-20T18:52:50.775Z,35.52
2019-05-20T18:55:21.350Z,33.88
2019-05-20T18:57:51.134Z,34.14
2019-05-20T19:00:22.170Z,34.92
2019-05-20T19:02:51.490Z,34.53
2019-05-20T19:05:21.517Z,33.55
2019-05-20T19:07:51.768Z,33.83
2019-05-20T19:10:21.846Z,35.10
2019-05-20T19:12:52.071Z,36.66
2019-05-20T19:15:22.147Z,35.60
2019-05-20T19:17:52.395Z,33.28
2019-05-20T19:20:24.139Z,35.98
2019-05-20T19:22:53.482Z,35.83
2019-05-20T19:25:36.740Z,37.70
2019-05-20T19:27:53.879Z,36.30
2019-05-20T19:30:23.211Z,35.43
2019-05-20T19:32:53.155Z,36.17
2019-05-20T19:35:23.386Z,37.88
2019-05-20T19:37:53.486Z,36.38
2019-05-20T19:40:23.627Z,38.08
2019-05-20T19:42:54.116Z,37.52
2019-05-20T19:45:24.040Z,37.58
2019-05-20T19:47:54.258Z,37.44
2019-05-20T19:50:24.315Z,37.93
2019-05-20T19:52:54.622Z,35.90
2019-05-20T19:55:24.742Z,35.17
2019-05-20T19:57:54.853Z,35.50
2019-05-20T20:00:25.174Z,34.95
2019-05-20T20:02:55.374Z,35.85
2019-05-20T20:05:25.685Z,36.23
2019-05-20T20:07:55.371Z,36.13
2019-05-20T20:10:25.499Z,37.65
2019-05-20T20:12:55.969Z,37.15
2019-05-20T20:15:25.896Z,37.67
2019-05-20T20:17:56.001Z,36.68
2019-05-20T20:20:26.108Z,38.35
2019-05-20T20:22:56.358Z,38.28
2019-05-20T20:25:26.607Z,39.97
2019-05-20T20:27:56.653Z,38.30
2019-05-20T20:30:26.808Z,39.13
2019-05-20T20:32:56.919Z,38.75
2019-05-20T20:35:37.723Z,39.42
2019-05-20T20:37:58.166Z,40.90
2019-05-20T20:40:27.480Z,39.30
2019-05-20T20:42:57.571Z,39.78
2019-05-20T20:45:27.836Z,40.05
2019-05-20T20:47:57.814Z,40.63
2019-05-20T20:50:27.990Z,40.80
2019-05-20T20:52:58.135Z,40.05
2019-05-20T20:55:28.395Z,43.10
2019-05-20T20:57:58.447Z,43.17
2019-05-20T21:00:28.683Z,41.80
2019-05-20T21:02:58.708Z,41.63
2019-05-20T21:05:28.973Z,41.48
2019-05-20T21:07:59.040Z,40.48
2019-05-20T21:10:29.210Z,40.88
2019-05-20T21:12:59.343Z,40.55
2019-05-20T21:15:29.506Z,38.65
2019-05-20T21:17:59.640Z,37.95
2019-05-20T21:20:29.966Z,39.90
2019-05-20T21:22:59.956Z,36.75
2019-05-20T21:25:30.116Z,35.60
2019-05-20T21:28:00.310Z,36.45
2019-05-20T21:30:30.368Z,37.60
2019-05-20T21:33:08.672Z,38.63
2019-05-20T21:35:31.674Z,41.45
2019-05-20T21:38:01.012Z,43.02
2019-05-20T21:40:31.059Z,42.44
2019-05-20T21:43:01.155Z,46.42
2019-05-20T21:45:31.425Z,46.65
2019-05-20T21:48:01.593Z,51.58
2019-05-20T21:50:31.842Z,49.60
2019-05-20T21:53:01.915Z,48.98
2019-05-20T21:55:32.249Z,48.90
2019-05-20T21:58:02.164Z,49.83
2019-05-20T22:00:36.976Z,49.45
2019-05-20T22:03:07.350Z,48.92
2019-05-20T22:05:36.694Z,48.40
2019-05-20T22:08:07.090Z,45.90
2019-05-20T22:10:36.433Z,46.18
2019-05-20T22:13:05.739Z,48.20
2019-05-20T22:15:35.109Z,46.83
2019-05-20T22:18:04.511Z,47.78
2019-05-20T22:20:33.818Z,49.23
2019-05-20T22:23:21.845Z,50.90
2019-05-20T22:25:52.423Z,48.83
2019-05-20T22:28:21.730Z,53.28
2019-05-20T22:30:51.054Z,52.83
2019-05-20T22:33:20.365Z,54.03
2019-05-20T22:35:49.666Z,54.13
2019-05-20T22:38:18.999Z,54.53
2019-05-20T22:40:48.295Z,57.17
2019-05-20T22:43:17.653Z,57.88
2019-05-20T22:45:47.040Z,58.35
2019-05-20T22:48:16.405Z,58.33
2019-05-20T22:50:48.646Z,59.23
2019-05-20T22:53:16.879Z,57.60
2019-05-20T22:55:46.187Z,58.98
2019-05-20T22:58:15.815Z,56.02
2019-05-20T23:00:45.124Z,58.80
2019-05-20T23:03:14.538Z,59.05
2019-05-20T23:05:43.962Z,57.30
2019-05-20T23:08:13.489Z,56.77
2019-05-20T23:10:44.674Z,59.10
2019-05-20T23:13:14.027Z,56.40
2019-05-20T23:15:43.325Z,54.73
2019-05-20T23:18:12.638Z,49.00
2019-05-20T23:20:41.989Z,48.30
2019-05-20T23:23:11.346Z,44.30
2019-05-20T23:25:40.657Z,44.45
2019-05-20T23:28:09.963Z,44.95
2019-05-20T23:30:39.296Z,43.80
2019-05-20T23:33:08.699Z,49.83
2019-05-20T23:35:38.039Z,43.58
2019-05-20T23:38:08.330Z,48.20
2019-05-20T23:40:38.360Z,50.55
2019-05-20T23:43:08.571Z,52.53
2019-05-20T23:45:38.629Z,45.23
2019-05-20T23:48:08.860Z,43.30
2019-05-20T23:50:38.987Z,42.48
2019-05-20T23:53:09.105Z,39.90
2019-05-20T23:55:39.226Z,40.50
2019-05-20T23:58:09.457Z,42.73
